Time;durP1;ratioP1;P1;durP2;ratioP2;P2;SDS_P1;SDS_P2;PMS_P1;PMS_P2;Temp;Humidity;BMP_temperature;BMP_pressure;BME280_temperature;BME280_humidity;BME280_pressure;Samples;Min_cycle;Max_cycle;Signal;HPM_P1;HPM_P2
2023/11/25 00:01:12;;;;;;;23.77;9.83;;;3.70;96.70;;;;;;784736;180;27022;-89
2023/11/25 00:03:37;;;;;;;15.90;5.90;;;3.70;96.90;;;;;;776613;183;26455;-89
2023/11/25 00:06:04;;;;;;;13.93;5.13;;;3.70;96.40;;;;;;777443;185;28115;-89
2023/11/25 00:08:40;;;;;;;15.30;5.77;;;3.70;96.40;;;;;;777439;185;26459;-89
2023/11/25 00:11:16;;;;;;;11.57;4.80;;;3.70;96.60;;;;;;777736;183;26471;-89
2023/11/25 00:13:50;;;;;;;13.60;5.90;;;3.70;96.90;;;;;;777303;182;27024;-89
2023/11/25 00:16:23;;;;;;;14.43;5.17;;;3.70;96.30;;;;;;790652;179;27061;-90
2023/11/25 00:18:51;;;;;;;19.03;6.77;;;3.60;96.20;;;;;;779921;181;26506;-89
2023/11/25 00:21:18;;;;;;;23.10;6.13;;;3.60;96.40;;;;;;777715;181;26456;-89
2023/11/25 00:23:44;;;;;;;18.00;6.17;;;3.60;96.70;;;;;;793789;180;26455;-88
2023/11/25 00:26:11;;;;;;;13.97;5.30;;;3.50;96.40;;;;;;797815;175;26483;-90
2023/11/25 00:28:40;;;;;;;18.03;6.50;;;3.50;96.20;;;;;;797552;180;26516;-88
2023/11/25 00:31:25;;;;;;;15.57;5.10;;;3.60;96.60;;;;;;797601;179;26451;-89
2023/11/25 00:33:52;;;;;;;11.57;5.00;;;3.60;96.40;;;;;;797416;179;26453;-90
2023/11/25 00:36:18;;;;;;;13.80;4.37;;;3.60;96.50;;;;;;797299;179;26500;-89
2023/11/25 00:38:55;;;;;;;;;;;;;;;;;;;;;
2023/11/25 00:41:22;;;;;;;13.07;4.23;;;3.60;96.20;;;;;;782340;179;26728;-89
2023/11/25 00:43:48;;;;;;;12.47;4.20;;;3.60;96.00;;;;;;778457;181;26998;-89
2023/11/25 00:46:15;;;;;;;18.40;6.00;;;3.50;96.00;;;;;;782321;181;26475;-90
2023/11/25 00:48:43;;;;;;;17.07;6.00;;;3.50;96.20;;;;;;784063;181;27008;-89
2023/11/25 00:51:08;;;;;;;8.17;3.70;;;3.40;96.10;;;;;;778470;181;26477;-90
2023/11/25 00:53:35;;;;;;;10.33;3.10;;;3.40;96.40;;;;;;778597;181;27029;-90
2023/11/25 00:56:01;;;;;;;14.47;4.20;;;3.40;96.00;;;;;;775843;181;26479;-89
2023/11/25 00:58:28;;;;;;;11.27;3.40;;;3.30;95.90;;;;;;785906;180;27004;-90
2023/11/25 01:00:54;;;;;;;13.03;3.77;;;3.40;96.00;;;;;;788863;181;26454;-90
2023/11/25 01:03:21;;;;;;;16.27;4.43;;;3.50;96.10;;;;;;785486;180;26456;-90
2023/11/25 01:05:49;;;;;;;15.83;4.83;;;3.60;96.30;;;;;;778326;180;26467;-90
2023/11/25 01:08:14;;;;;;;32.67;11.00;;;3.70;96.60;;;;;;782782;181;26484;-90
2023/11/25 01:10:41;;;;;;;31.37;9.97;;;3.60;96.20;;;;;;778259;180;26481;-90
2023/11/25 01:13:07;;;;;;;18.47;5.27;;;3.40;96.00;;;;;;775646;182;26471;-90
2023/11/25 01:15:34;;;;;;;17.57;5.57;;;3.40;96.00;;;;;;782488;181;26473;-90
2023/11/25 01:18:00;;;;;;;15.10;4.67;;;3.40;96.00;;;;;;776677;181;26463;-89
2023/11/25 01:20:27;;;;;;;17.77;5.70;;;3.40;96.20;;;;;;785699;178;26460;-90
2023/11/25 01:22:54;;;;;;;18.33;5.80;;;3.40;96.60;;;;;;786210;180;26457;-90
2023/11/25 01:25:21;;;;;;;18.30;4.07;;;3.40;96.30;;;;;;777266;180;26464;-90
2023/11/25 01:27:47;;;;;;;12.63;3.63;;;3.50;96.60;;;;;;774379;180;27036;-90
2023/11/25 01:30:14;;;;;;;13.77;3.30;;;3.50;96.40;;;;;;780663;180;26461;-90
2023/11/25 01:32:40;;;;;;;18.17;5.60;;;3.50;96.30;;;;;;789618;181;26479;-90
2023/11/25 01:35:07;;;;;;;22.77;5.90;;;3.50;96.50;;;;;;790174;180;26481;-90
2023/11/25 01:37:33;;;;;;;19.13;5.60;;;3.60;96.40;;;;;;786987;181;26463;-90
2023/11/25 01:40:00;;;;;;;26.47;9.10;;;3.60;96.30;;;;;;775836;180;26452;-90
2023/11/25 01:42:27;;;;;;;10.97;3.40;;;3.70;96.10;;;;;;779801;180;26521;-89
2023/11/25 01:44:53;;;;;;;16.87;4.37;;;3.60;96.20;;;;;;791138;181;26498;-90
2023/11/25 01:47:20;;;;;;;24.50;6.70;;;3.70;96.20;;;;;;778331;180;26471;-89
2023/11/25 01:49:46;;;;;;;25.90;6.93;;;3.70;96.10;;;;;;781270;180;26455;-90
2023/11/25 01:52:13;;;;;;;38.70;14.23;;;3.70;96.10;;;;;;783741;180;27024;-90
2023/11/25 01:54:40;;;;;;;55.17;20.57;;;3.70;96.00;;;;;;776161;180;26475;-90
2023/11/25 01:57:06;;;;;;;23.60;8.90;;;3.70;96.00;;;;;;783861;181;27115;-90
2023/11/25 01:59:50;;;;;;;19.50;5.73;;;3.70;96.10;;;;;;776685;181;26456;-90
2023/11/25 02:02:16;;;;;;;19.27;5.53;;;3.60;96.10;;;;;;786134;180;26459;-90
2023/11/25 02:04:43;;;;;;;23.30;7.87;;;3.60;96.10;;;;;;788899;180;26490;-90
2023/11/25 02:07:10;;;;;;;28.63;10.87;;;3.60;96.00;;;;;;783015;181;26455;-90
2023/11/25 02:09:37;;;;;;;27.63;9.77;;;3.60;96.00;;;;;;787552;180;26452;-91
2023/11/25 02:12:07;;;;;;;18.57;5.27;;;3.50;95.90;;;;;;788011;182;26489;-90
2023/11/25 02:14:34;;;;;;;18.77;6.20;;;3.50;95.80;;;;;;786710;181;26477;-89
2023/11/25 02:17:01;;;;;;;17.93;6.30;;;3.50;95.90;;;;;;785542;180;26459;-89
2023/11/25 02:19:28;;;;;;;33.53;12.53;;;3.40;96.20;;;;;;788307;181;26997;-90
2023/11/25 02:21:55;;;;;;;22.27;8.67;;;3.30;96.00;;;;;;786668;181;26449;-90
2023/11/25 02:24:22;;;;;;;16.17;5.87;;;3.30;96.10;;;;;;781367;181;26572;-90
2023/11/25 02:26:47;;;;;;;24.07;8.37;;;3.40;96.20;;;;;;789886;181;26460;-90
2023/11/25 02:29:14;;;;;;;23.60;7.97;;;3.40;96.10;;;;;;785601;180;26456;-91
2023/11/25 02:31:42;;;;;;;19.30;6.93;;;3.40;96.20;;;;;;782993;180;27019;-90
2023/11/25 02:34:07;;;;;;;39.30;14.87;;;3.30;96.20;;;;;;788855;181;26452;-90
2023/11/25 02:36:34;;;;;;;97.17;39.70;;;3.30;96.30;;;;;;781079;179;26474;-90
2023/11/25 02:39:00;;;;;;;25.20;9.83;;;3.20;96.10;;;;;;775767;181;26467;-90
2023/11/25 02:41:27;;;;;;;50.40;22.73;;;3.30;96.30;;;;;;780254;181;26471;-90
2023/11/25 02:43:54;;;;;;;25.23;10.77;;;3.20;96.20;;;;;;785941;180;26448;-90
2023/11/25 02:46:21;;;;;;;28.57;11.30;;;3.30;96.40;;;;;;783708;180;26458;-90
2023/11/25 02:48:47;;;;;;;26.00;10.53;;;3.20;96.20;;;;;;783088;180;26447;-90
2023/11/25 02:51:14;;;;;;;20.43;6.23;;;3.30;96.10;;;;;;780766;181;26443;-90
2023/11/25 02:53:48;;;;;;;15.93;4.17;;;3.20;96.10;;;;;;780651;180;26451;-90
2023/11/25 02:56:15;;;;;;;16.30;4.20;;;3.30;96.20;;;;;;789161;180;26462;-90
2023/11/25 02:58:42;;;;;;;10.97;4.13;;;3.20;96.00;;;;;;784103;183;27082;-90
2023/11/25 03:01:13;;;;;;;20.30;4.00;;;3.30;96.00;;;;;;780583;181;26439;-90
2023/11/25 03:04:11;;;;;;;;;;;;;;;;;;;;;
2023/11/25 03:06:58;;;;;;;15.70;3.43;;;3.30;96.30;;;;;;779598;181;27057;-90
2023/11/25 03:09:49;;;;;;;14.43;4.07;;;3.40;95.80;;;;;;781249;180;26459;-90
2023/11/25 03:12:44;;;;;;;14.63;4.00;;;3.40;95.60;;;;;;782256;181;26464;-90
2023/11/25 03:32:05;;;;;;;;;;;;;;;;;;;;;
2023/11/25 03:43:26;;;;;;;55.30;17.10;;;3.20;96.30;;;;;;730978;194;26573;-89
2023/11/25 03:46:28;;;;;;;24.07;6.07;;;3.20;96.30;;;;;;753795;183;26524;-87
2023/11/25 04:08:52;;;;;;;16.10;4.03;;;3.40;95.70;;;;;;800738;174;26978;-89
2023/11/25 04:14:25;;;;;;;20.93;4.27;;;3.40;95.90;;;;;;796026;175;26435;-89
2023/11/25 04:17:28;;;;;;;;;;;;;;;;;;;;;
2023/11/25 04:34:01;;;;;;;13.23;3.60;;;3.70;95.40;;;;;;741295;175;26482;-90
2023/11/25 04:37:03;;;;;;;19.93;3.63;;;3.70;95.50;;;;;;790262;180;26619;-90
2023/11/25 04:50:52;;;;;;;16.33;3.80;;;3.70;95.60;;;;;;748538;190;27113;-89
2023/11/25 05:34:49;;;;;;;16.77;3.90;;;3.80;95.60;;;;;;746701;177;26486;-90
2023/11/25 05:43:33;;;;;;;13.10;2.77;;;3.90;94.90;;;;;;788623;178;26435;-90
2023/11/25 05:46:17;;;;;;;14.80;2.90;;;3.90;95.00;;;;;;809729;176;27063;-90
2023/11/25 05:59:47;;;;;;;11.80;3.20;;;4.10;94.50;;;;;;736417;175;26578;-90
2023/11/25 06:02:13;;;;;;;19.07;3.40;;;4.10;94.80;;;;;;790578;177;26464;-89
2023/11/25 06:04:40;;;;;;;15.63;3.37;;;4.10;94.90;;;;;;788364;177;26459;-91
2023/11/25 06:07:07;;;;;;;16.13;3.27;;;4.20;94.80;;;;;;787857;181;26485;-91
2023/11/25 06:09:33;;;;;;;15.30;4.03;;;4.20;94.60;;;;;;788256;181;26515;-90
2023/11/25 06:12:00;;;;;;;9.37;2.90;;;4.30;94.60;;;;;;779628;182;26449;-91
2023/11/25 06:14:28;;;;;;;13.63;3.00;;;4.20;94.40;;;;;;783096;182;26978;-90
2023/11/25 06:16:56;;;;;;;15.37;2.90;;;4.30;94.20;;;;;;782029;181;26449;-91
2023/11/25 06:19:20;;;;;;;10.90;3.43;;;4.30;94.30;;;;;;784208;182;26464;-90
2023/11/25 06:21:47;;;;;;;16.10;4.23;;;4.30;94.10;;;;;;788081;181;26454;-91
2023/11/25 06:24:14;;;;;;;15.47;3.77;;;4.30;94.70;;;;;;781046;181;26463;-90
2023/11/25 06:26:41;;;;;;;12.40;3.20;;;4.40;94.20;;;;;;784789;181;27035;-90
2023/11/25 06:29:07;;;;;;;14.17;2.93;;;4.40;94.50;;;;;;785023;178;26461;-90
2023/11/25 06:31:49;;;;;;;;;;;;;;;;;;;;;
2023/11/25 06:37:39;;;;;;;16.43;3.50;;;4.50;93.70;;;;;;785075;179;26513;-91
2023/11/25 06:40:33;;;;;;;17.93;3.77;;;4.50;93.90;;;;;;769948;185;26498;-91
2023/11/25 06:46:25;;;;;;;14.73;4.80;;;4.50;93.50;;;;;;777254;182;26487;-91
2023/11/25 08:17:05;;;;;;;10.03;2.83;;;4.80;95.30;;;;;;735987;178;26962;-89
2023/11/25 08:19:32;;;;;;;14.83;3.30;;;4.90;95.50;;;;;;788070;179;26483;-89
2023/11/25 08:21:58;;;;;;;11.57;2.70;;;4.90;95.20;;;;;;789474;180;28090;-89
2023/11/25 08:24:25;;;;;;;10.93;2.80;;;4.90;95.00;;;;;;792322;179;26441;-90
2023/11/25 08:40:32;;;;;;;11.40;2.83;;;5.00;94.70;;;;;;720098;182;26564;-89
2023/11/25 08:45:47;;;;;;;13.73;3.73;;;5.00;95.00;;;;;;778427;185;26476;-89
2023/11/25 08:48:31;;;;;;;9.87;2.70;;;5.20;95.00;;;;;;780319;183;26471;-90
2023/11/25 08:51:17;;;;;;;11.07;3.30;;;5.20;94.90;;;;;;779712;178;26491;-89
2023/11/25 08:54:02;;;;;;;10.87;2.90;;;5.20;94.70;;;;;;779471;184;27050;-90
2023/11/25 08:56:44;;;;;;;13.97;3.10;;;5.20;94.90;;;;;;779458;183;26487;-90
2023/11/25 08:59:20;;;;;;;10.80;2.93;;;5.20;94.80;;;;;;779041;185;26492;-89
2023/11/25 09:01:57;;;;;;;17.67;3.57;;;5.10;94.30;;;;;;775511;185;26487;-89
2023/11/25 09:04:59;;;;;;;13.67;3.20;;;5.00;94.20;;;;;;767997;187;26499;-89
2023/11/25 09:08:06;;;;;;;;;;;;;;;;;;;;;
2023/11/25 12:35:13;;;;;;;20.33;6.90;;;6.50;95.90;;;;;;745068;177;26527;-90
2023/11/25 12:37:45;;;;;;;18.13;6.80;;;6.40;95.50;;;;;;784242;183;26470;-90
2023/11/25 12:40:23;;;;;;;16.90;6.57;;;6.40;95.40;;;;;;781485;184;26482;-90
2023/11/25 12:42:51;;;;;;;12.53;5.40;;;6.50;95.30;;;;;;781551;184;26477;-90
2023/11/25 12:45:35;;;;;;;8.07;3.43;;;6.50;95.40;;;;;;781145;184;26415;-90
2023/11/25 12:59:06;;;;;;;15.20;4.37;;;6.60;94.50;;;;;;726363;179;26574;-90
2023/11/25 13:01:45;;;;;;;15.17;3.50;;;6.70;94.60;;;;;;777125;185;27010;-90
2023/11/25 13:04:13;;;;;;;14.10;4.47;;;6.70;94.50;;;;;;767656;187;26513;-90
2023/11/25 13:06:48;;;;;;;18.80;6.27;;;6.70;95.10;;;;;;762941;188;26504;-90
2023/11/25 13:09:27;;;;;;;13.27;4.10;;;6.90;95.60;;;;;;767036;187;26537;-90
2023/11/25 13:11:51;;;;;;;15.87;4.40;;;7.00;94.30;;;;;;761562;188;27027;-90
2023/11/25 13:14:21;;;;;;;13.03;3.67;;;7.10;94.10;;;;;;766871;187;27058;-91
2023/11/25 13:17:05;;;;;;;;;;;;;;;;;;;;;
2023/11/25 13:27:41;;;;;;;21.43;7.27;;;7.10;93.10;;;;;;799459;180;26438;-89
2023/11/25 13:43:48;;;;;;;9.97;4.13;;;7.10;93.30;;;;;;805463;176;26402;-89
2023/11/25 13:46:14;;;;;;;18.77;5.37;;;7.10;93.40;;;;;;810566;177;26407;-89
2023/11/25 13:48:41;;;;;;;11.90;5.07;;;7.00;92.90;;;;;;807105;173;26461;-89
2023/11/25 13:51:13;;;;;;;14.17;5.13;;;7.10;93.70;;;;;;813851;176;26976;-89
2023/11/25 14:24:04;;;;;;;59.93;26.27;;;7.30;92.50;;;;;;733672;178;26494;-92
2023/11/25 14:26:43;;;;;;;16.33;6.20;;;7.30;92.60;;;;;;766772;185;27047;-92
2023/11/25 16:47:27;;;;;;;19.03;5.47;;;6.10;97.40;;;;;;736669;171;27864;-89
2023/11/25 16:49:54;;;;;;;32.60;10.23;;;6.10;97.00;;;;;;763637;187;27052;-88
2023/11/25 16:52:20;;;;;;;25.57;9.23;;;6.10;97.20;;;;;;776714;179;26480;-88
2023/11/25 16:54:46;;;;;;;25.30;7.47;;;6.20;96.70;;;;;;776805;184;26517;-88
2023/11/25 16:57:13;;;;;;;19.77;6.67;;;6.30;96.10;;;;;;776394;184;27066;-89
2023/11/25 16:59:40;;;;;;;59.40;24.00;;;6.40;96.20;;;;;;774349;185;26453;-89
2023/11/25 17:13:11;;;;;;;18.10;5.07;;;6.50;95.70;;;;;;752392;174;26993;-89
2023/11/25 17:15:36;;;;;;;16.33;5.10;;;6.50;96.00;;;;;;810198;176;26433;-89
2023/11/25 17:18:03;;;;;;;30.63;11.70;;;6.50;95.50;;;;;;810318;176;26429;-89
2023/11/25 17:20:31;;;;;;;35.07;14.03;;;6.50;95.70;;;;;;810335;177;26429;-88
2023/11/25 17:22:57;;;;;;;15.13;5.47;;;6.50;95.80;;;;;;816713;172;26460;-89
2023/11/25 17:25:23;;;;;;;18.43;7.30;;;6.50;95.30;;;;;;819436;173;26424;-89
2023/11/25 17:27:50;;;;;;;51.77;19.53;;;6.60;95.80;;;;;;819668;174;26972;-89
2023/11/25 17:30:16;;;;;;;37.30;15.27;;;6.50;95.80;;;;;;820145;172;26409;-90
2023/11/25 17:32:43;;;;;;;28.03;9.03;;;6.50;95.90;;;;;;820452;175;26433;-89
2023/11/25 17:35:09;;;;;;;20.67;5.63;;;6.50;95.20;;;;;;820553;175;26555;-89
2023/11/25 17:37:36;;;;;;;20.67;5.97;;;6.50;95.00;;;;;;820508;174;26401;-89
2023/11/25 17:40:04;;;;;;;30.63;12.43;;;6.50;95.50;;;;;;821863;172;26440;-89
2023/11/25 17:42:29;;;;;;;20.13;6.23;;;6.50;95.30;;;;;;822910;174;26424;-89
2023/11/25 17:44:56;;;;;;;17.83;7.53;;;6.60;94.80;;;;;;822243;175;26420;-89
2023/11/25 17:47:23;;;;;;;21.77;5.60;;;6.60;95.10;;;;;;822156;175;26873;-91
2023/11/25 17:49:49;;;;;;;14.23;3.97;;;6.60;94.90;;;;;;821693;175;26428;-92
2023/11/25 17:52:16;;;;;;;16.60;3.70;;;6.60;94.70;;;;;;821811;173;26954;-89
2023/11/25 17:54:42;;;;;;;15.20;3.80;;;6.70;95.70;;;;;;821980;175;26424;-88
2023/11/25 17:57:15;;;;;;;10.23;4.10;;;6.60;96.30;;;;;;821960;175;26408;-89
2023/11/25 17:59:36;;;;;;;6.87;2.70;;;6.60;96.10;;;;;;820612;172;26420;-89
2023/11/25 18:02:02;;;;;;;8.40;2.60;;;6.50;95.70;;;;;;821293;175;26468;-89
2023/11/25 18:04:29;;;;;;;6.90;3.00;;;6.50;95.90;;;;;;821185;174;26429;-89
2023/11/25 18:06:55;;;;;;;6.63;2.70;;;6.40;96.00;;;;;;821176;175;26413;-89
2023/11/25 18:09:23;;;;;;;7.47;3.47;;;6.40;95.60;;;;;;821038;174;27008;-90
2023/11/25 18:11:49;;;;;;;7.43;3.83;;;6.30;95.90;;;;;;820748;174;26432;-89
2023/11/25 18:17:09;;;;;;;9.20;4.37;;;6.00;96.40;;;;;;818971;175;26412;-91
2023/11/25 18:19:42;;;;;;;13.83;5.50;;;5.70;97.00;;;;;;819109;172;26963;-92
2023/11/25 18:22:09;;;;;;;9.83;5.07;;;5.50;97.30;;;;;;820264;174;26979;-90
2023/11/25 18:24:36;;;;;;;13.03;5.67;;;5.40;97.90;;;;;;817225;174;26412;-89
2023/11/25 18:27:02;;;;;;;16.60;8.03;;;5.30;97.80;;;;;;810839;175;26415;-89
2023/11/25 18:29:29;;;;;;;22.10;8.23;;;5.50;98.60;;;;;;803202;175;26455;-89
2023/11/25 18:31:55;;;;;;;13.60;8.53;;;5.50;98.60;;;;;;800921;178;26423;-89
2023/11/25 18:34:22;;;;;;;25.87;11.03;;;5.50;98.40;;;;;;819187;175;27002;-89
2023/11/25 18:36:49;;;;;;;18.83;10.23;;;5.60;98.90;;;;;;812323;174;26404;-89
2023/11/25 18:39:15;;;;;;;17.53;10.90;;;5.60;99.00;;;;;;812922;175;26450;-89
2023/11/25 18:41:42;;;;;;;19.93;11.03;;;5.80;99.50;;;;;;816552;175;26436;-89
2023/11/25 18:44:08;;;;;;;17.93;9.40;;;5.80;99.20;;;;;;812198;175;26417;-89
2023/11/25 18:46:35;;;;;;;23.27;10.60;;;5.80;99.30;;;;;;811235;175;26412;-89
2023/11/25 18:49:05;;;;;;;27.47;11.87;;;5.80;99.30;;;;;;810302;174;26994;-89
2023/11/25 18:51:28;;;;;;;20.60;10.00;;;6.00;99.50;;;;;;821777;172;26972;-89
2023/11/25 18:53:55;;;;;;;18.87;8.30;;;5.90;99.30;;;;;;811815;174;26412;-89
2023/11/25 18:56:22;;;;;;;21.33;9.37;;;5.90;99.30;;;;;;812143;175;26429;-90
2023/11/25 18:58:48;;;;;;;20.10;9.30;;;5.90;99.10;;;;;;803487;172;26448;-90
2023/11/25 19:01:15;;;;;;;27.53;9.90;;;6.00;99.10;;;;;;817435;175;26432;-90
2023/11/25 19:03:41;;;;;;;29.30;11.77;;;6.10;99.30;;;;;;809247;174;26466;-90
2023/11/25 19:06:08;;;;;;;29.10;12.30;;;6.20;99.50;;;;;;801719;179;26412;-90
2023/11/25 19:08:35;;;;;;;38.87;13.43;;;6.20;99.50;;;;;;802343;178;26416;-89
2023/11/25 19:11:01;;;;;;;20.40;10.17;;;6.30;99.70;;;;;;801872;178;26433;-90
2023/11/25 19:13:28;;;;;;;23.10;9.77;;;6.20;99.50;;;;;;800556;179;26427;-90
2023/11/25 19:15:54;;;;;;;20.43;10.23;;;6.20;99.40;;;;;;800442;178;26416;-90
2023/11/25 19:18:21;;;;;;;21.83;7.80;;;6.20;99.50;;;;;;801711;178;26471;-90
2023/11/25 19:20:48;;;;;;;24.43;8.63;;;6.40;99.40;;;;;;802825;179;26982;-90
2023/11/25 19:23:15;;;;;;;15.17;5.80;;;6.30;98.90;;;;;;804348;177;26472;-90
2023/11/25 19:25:41;;;;;;;20.77;5.87;;;6.30;98.80;;;;;;804072;177;26582;-89
2023/11/25 19:28:07;;;;;;;23.57;5.20;;;6.40;98.30;;;;;;801309;178;26964;-90
2023/11/25 19:30:34;;;;;;;29.73;7.13;;;6.40;97.60;;;;;;809646;174;26413;-89
2023/11/25 19:33:01;;;;;;;15.33;4.33;;;6.40;97.90;;;;;;823001;174;26464;-89
2023/11/25 19:35:27;;;;;;;17.33;4.53;;;6.40;97.70;;;;;;822896;174;27044;-90
2023/11/25 19:37:54;;;;;;;19.43;4.00;;;6.50;97.90;;;;;;817906;174;26410;-90
2023/11/25 19:40:21;;;;;;;16.97;4.53;;;6.40;97.10;;;;;;806372;174;26424;-90
2023/11/25 19:42:47;;;;;;;21.23;5.87;;;6.50;97.80;;;;;;811876;175;26433;-89
2023/11/25 19:45:14;;;;;;;16.80;4.27;;;6.50;98.10;;;;;;802973;179;26474;-89
2023/11/25 19:47:40;;;;;;;20.03;4.80;;;6.50;97.80;;;;;;802282;179;26439;-90
2023/11/25 19:50:08;;;;;;;17.27;4.20;;;6.50;97.70;;;;;;802678;178;26420;-90
2023/11/25 19:52:34;;;;;;;18.77;4.33;;;6.60;97.30;;;;;;815759;175;26428;-88
2023/11/25 19:55:01;;;;;;;16.87;5.30;;;6.60;97.80;;;;;;805419;174;26400;-89
2023/11/25 19:57:28;;;;;;;21.70;5.17;;;6.60;97.90;;;;;;806728;174;26433;-89
2023/11/25 19:59:55;;;;;;;19.87;4.77;;;6.50;97.50;;;;;;796387;179;26418;-89
2023/11/25 20:02:21;;;;;;;22.10;5.60;;;6.50;97.20;;;;;;795310;177;26490;-89
2023/11/25 20:04:47;;;;;;;15.30;5.03;;;6.50;97.50;;;;;;804830;177;26934;-90
2023/11/25 20:07:14;;;;;;;23.30;5.07;;;6.50;97.70;;;;;;803684;178;26411;-89
2023/11/25 20:09:41;;;;;;;20.13;6.00;;;6.50;97.50;;;;;;805638;178;26415;-89
2023/11/25 20:12:09;;;;;;;12.87;4.43;;;6.40;96.80;;;;;;803870;177;26483;-89
2023/11/25 20:14:35;;;;;;;17.40;6.70;;;6.40;96.70;;;;;;810427;177;26414;-89
2023/11/25 20:17:01;;;;;;;22.80;7.77;;;6.40;97.20;;;;;;810513;177;26416;-88
2023/11/25 20:19:29;;;;;;;18.30;5.50;;;6.40;97.40;;;;;;818892;175;26409;-89
2023/11/25 20:21:55;;;;;;;23.50;8.70;;;6.30;96.70;;;;;;820407;174;26443;-89
2023/11/25 20:24:21;;;;;;;28.40;11.13;;;6.30;97.10;;;;;;820769;174;26445;-88
2023/11/25 20:26:47;;;;;;;26.70;9.10;;;6.20;97.10;;;;;;821027;174;26431;-88
2023/11/25 20:29:17;;;;;;;35.77;13.77;;;6.20;97.30;;;;;;817025;174;26586;-88
2023/11/25 20:31:44;;;;;;;49.53;17.63;;;6.20;97.50;;;;;;801766;174;26439;-88
2023/11/25 20:34:11;;;;;;;22.17;9.53;;;6.10;97.40;;;;;;808616;176;26417;-89
2023/11/25 20:36:37;;;;;;;33.60;11.20;;;6.30;97.50;;;;;;818697;175;26412;-90
2023/11/25 20:39:04;;;;;;;30.33;10.20;;;6.20;97.40;;;;;;813363;172;26417;-90
2023/11/25 20:41:30;;;;;;;32.70;13.63;;;6.20;97.50;;;;;;815813;171;26411;-89
2023/11/25 20:43:57;;;;;;;29.20;9.43;;;6.20;97.60;;;;;;814188;174;26404;-89
2023/11/25 20:46:24;;;;;;;21.57;6.87;;;6.20;97.80;;;;;;803005;175;26985;-89
2023/11/25 20:48:50;;;;;;;19.30;5.43;;;6.20;97.20;;;;;;803306;179;26408;-89
2023/11/25 20:51:21;;;;;;;19.23;6.57;;;6.20;97.00;;;;;;803469;175;26400;-89
2023/11/25 20:53:47;;;;;;;20.10;6.33;;;6.10;96.90;;;;;;806102;176;26408;-89
2023/11/25 20:56:15;;;;;;;15.77;5.17;;;6.10;97.40;;;;;;815502;175;26463;-90
2023/11/25 20:58:41;;;;;;;27.20;9.23;;;6.10;96.90;;;;;;819169;172;26410;-90
2023/11/25 21:01:07;;;;;;;22.63;5.63;;;6.20;97.40;;;;;;808552;174;26419;-90
2023/11/25 21:03:34;;;;;;;14.80;4.50;;;6.20;97.10;;;;;;805460;175;26428;-89
2023/11/25 21:06:01;;;;;;;15.20;5.27;;;6.20;97.20;;;;;;803907;175;26420;-89
2023/11/25 21:08:28;;;;;;;14.40;5.00;;;6.20;97.30;;;;;;803332;175;26412;-89
2023/11/25 21:10:54;;;;;;;18.50;5.10;;;6.20;96.80;;;;;;813141;172;26412;-89
2023/11/25 21:13:21;;;;;;;18.20;5.20;;;6.30;97.40;;;;;;803608;177;26440;-89
2023/11/25 21:15:49;;;;;;;18.20;4.83;;;6.30;97.10;;;;;;808920;177;26392;-89
2023/11/25 21:18:14;;;;;;;17.83;4.73;;;6.30;97.20;;;;;;805140;177;26412;-90
2023/11/25 21:20:42;;;;;;;21.50;4.30;;;6.20;96.60;;;;;;814715;174;27006;-90
2023/11/25 21:23:08;;;;;;;16.43;4.70;;;6.20;96.60;;;;;;815903;174;27007;-90
2023/11/25 21:25:34;;;;;;;10.90;4.87;;;6.10;96.80;;;;;;810135;174;26414;-90
2023/11/25 21:28:01;;;;;;;17.40;5.77;;;6.10;97.20;;;;;;806823;174;26415;-90
2023/11/25 21:30:27;;;;;;;15.83;5.00;;;6.10;97.10;;;;;;821138;174;26391;-90
2023/11/25 21:32:56;;;;;;;20.40;6.70;;;6.10;96.80;;;;;;811268;171;26978;-89
2023/11/25 21:35:21;;;;;;;35.97;12.23;;;6.00;96.70;;;;;;808922;172;26421;-89
2023/11/25 21:37:47;;;;;;;28.13;9.17;;;5.90;96.70;;;;;;816929;175;26404;-89
2023/11/25 21:40:14;;;;;;;24.90;6.00;;;5.80;96.60;;;;;;802614;172;26410;-89
2023/11/25 21:42:40;;;;;;;25.27;8.77;;;5.80;96.60;;;;;;804535;174;26412;-89
2023/11/25 21:45:08;;;;;;;28.37;10.93;;;5.80;96.90;;;;;;805102;175;26428;-90
2023/11/25 21:47:35;;;;;;;25.00;8.53;;;5.90;97.30;;;;;;817623;174;26431;-90
2023/11/25 21:50:01;;;;;;;24.23;8.07;;;5.90;97.00;;;;;;808949;175;26414;-90
2023/11/25 21:52:27;;;;;;;25.03;7.77;;;5.80;96.80;;;;;;816440;172;26433;-89
2023/11/25 21:54:56;;;;;;;35.53;12.07;;;5.80;96.80;;;;;;812200;174;26392;-89
2023/11/25 21:57:21;;;;;;;22.43;6.53;;;5.80;96.90;;;;;;813139;175;26407;-90
2023/11/25 21:59:47;;;;;;;18.47;5.07;;;5.80;97.10;;;;;;822528;174;26404;-89
2023/11/25 22:02:14;;;;;;;18.10;6.00;;;5.70;96.90;;;;;;808295;172;26454;-89
2023/11/25 22:04:41;;;;;;;23.13;6.07;;;5.70;96.90;;;;;;804979;176;26411;-88
2023/11/25 22:07:08;;;;;;;19.87;6.60;;;5.70;97.20;;;;;;820507;173;26414;-89
2023/11/25 22:09:35;;;;;;;20.50;6.50;;;5.70;97.00;;;;;;821551;170;26408;-88
2023/11/25 22:12:04;;;;;;;23.27;8.00;;;5.80;97.50;;;;;;817337;170;26416;-89
2023/11/25 22:14:28;;;;;;;23.07;6.90;;;5.80;97.50;;;;;;817838;174;26433;-90
2023/11/25 22:16:55;;;;;;;29.23;8.13;;;5.90;97.90;;;;;;817923;174;26413;-89
2023/11/25 22:19:21;;;;;;;20.90;7.13;;;6.00;98.10;;;;;;810132;171;26408;-90
2023/11/25 22:21:48;;;;;;;22.47;7.97;;;6.00;97.40;;;;;;817555;172;26414;-91
2023/11/25 22:24:17;;;;;;;18.40;7.43;;;6.00;97.70;;;;;;805369;178;26411;-90
2023/11/25 22:26:55;;;;;;;29.50;8.20;;;6.00;97.80;;;;;;820582;172;26413;-89
2023/11/25 22:29:08;;;;;;;18.70;6.83;;;6.00;97.40;;;;;;808127;174;26416;-90
2023/11/25 22:31:35;;;;;;;29.77;9.43;;;5.90;97.40;;;;;;815855;173;26436;-89
2023/11/25 22:34:02;;;;;;;48.13;18.50;;;5.90;96.90;;;;;;822287;172;27994;-90
2023/11/25 22:36:30;;;;;;;34.80;15.13;;;5.80;96.90;;;;;;813467;174;26422;-91
2023/11/25 22:38:55;;;;;;;48.63;20.00;;;5.80;97.20;;;;;;811927;175;26421;-90
2023/11/25 22:41:23;;;;;;;21.70;9.50;;;5.90;97.40;;;;;;814118;175;26434;-91
2023/11/25 22:43:51;;;;;;;30.47;11.70;;;5.80;97.20;;;;;;820122;174;26409;-89
2023/11/25 22:46:18;;;;;;;24.97;9.40;;;5.80;97.20;;;;;;815114;173;26980;-91
2023/11/25 22:48:44;;;;;;;17.03;6.63;;;5.70;96.90;;;;;;822245;171;26475;-90
2023/11/25 22:51:10;;;;;;;20.90;6.93;;;5.70;97.10;;;;;;807727;174;27002;-90
2023/11/25 22:53:37;;;;;;;22.57;7.20;;;5.60;96.80;;;;;;812312;174;26457;-90
2023/11/25 22:56:04;;;;;;;18.80;6.87;;;5.50;96.80;;;;;;805332;175;26485;-91
2023/11/25 22:58:31;;;;;;;22.47;7.47;;;5.50;97.10;;;;;;813066;174;26415;-89
2023/11/25 23:00:59;;;;;;;24.73;7.13;;;5.50;97.10;;;;;;803480;174;26411;-91
2023/11/25 23:03:26;;;;;;;26.27;8.17;;;5.50;97.20;;;;;;808787;172;27013;-89
2023/11/25 23:05:52;;;;;;;21.93;7.33;;;5.50;97.20;;;;;;805957;175;26420;-88
2023/11/25 23:08:21;;;;;;;25.13;7.87;;;5.60;97.50;;;;;;810453;172;26419;-90
2023/11/25 23:10:46;;;;;;;21.07;9.17;;;5.60;97.20;;;;;;802170;174;26429;-90
2023/11/25 23:15:55;;;;;;;17.53;7.23;;;5.70;97.50;;;;;;805038;174;27000;-92
2023/11/25 23:18:38;;;;;;;21.30;6.90;;;5.70;96.90;;;;;;804791;178;26474;-92
2023/11/25 23:26:55;;;;;;;26.73;12.13;;;5.60;96.30;;;;;;748602;174;26503;-91
2023/11/25 23:29:29;;;;;;;25.20;10.07;;;5.70;96.70;;;;;;810788;176;26452;-91
2023/11/25 23:32:12;;;;;;;18.90;6.30;;;5.60;96.30;;;;;;810538;175;26447;-90
2023/11/25 23:40:21;;;;;;;26.50;9.03;;;5.60;96.00;;;;;;726230;178;26494;-90
2023/11/25 23:42:48;;;;;;;24.77;10.83;;;5.70;96.20;;;;;;776781;177;26480;-90
2023/11/25 23:45:15;;;;;;;42.33;15.60;;;5.70;96.10;;;;;;767713;184;26535;-91
2023/11/25 23:47:43;;;;;;;36.07;15.80;;;5.70;96.50;;;;;;767005;183;26514;-90
2023/11/25 23:50:08;;;;;;;22.07;8.33;;;5.70;96.20;;;;;;778911;178;26460;-89
2023/11/25 23:52:37;;;;;;;32.70;15.17;;;5.70;96.30;;;;;;775168;183;26711;-91
2023/11/25 23:55:02;;;;;;;22.10;8.20;;;5.60;96.00;;;;;;773688;183;27180;-91
2023/11/25 23:57:30;;;;;;;25.20;6.67;;;5.70;96.60;;;;;;773467;184;26503;-92
2023/11/25 23:59:57;;;;;;;19.47;6.60;;;5.60;96.20;;;;;;773768;183;27076;-91
